DLH2EL EDDF-EDDN
Flight info
| Callsign | DLH2EL |
|---|---|
| Flight time | N/A |
| Altitude | 21000 |
| Route | CINDY2D CINDY Z74 HAREM T104 ELMOX DCT LETKU LETKU1V |
| Aircraft | A320/M-SDE3FGHIRWY/LB1 |
Departure
| Time | 2026-04-14 15:38 |
|---|---|
| Airport | Frankfurt Main Airport (EDDF) |
Arrival
| Time | N/A |
|---|---|
| Airport | Nuremberg Airport (EDDN) |
| Time | Latitude | Longitude | Altitude | Speed | Heading |
|---|---|---|---|---|---|
| 2026-04-14 15:12 | 50.04412 | 8.56218 | 359 ft | 0 kts | 160° |
| 2026-04-14 15:26 | 50.04422 | 8.56212 | 357 ft | 2 kts | 160° |
| 2026-04-14 15:26 | 50.04438 | 8.56204 | 358 ft | 2 kts | 160° |
| 2026-04-14 15:26 | 50.04452 | 8.56196 | 356 ft | 2 kts | 185° |
| 2026-04-14 15:27 | 50.04469 | 8.56200 | 356 ft | 2 kts | 227° |
| 2026-04-14 15:27 | 50.04474 | 8.56210 | 364 ft | 0 kts | 264° |
| 2026-04-14 15:29 | 50.04461 | 8.56141 | 355 ft | 9 kts | 252° |
| 2026-04-14 15:29 | 50.04438 | 8.56057 | 362 ft | 8 kts | 236° |
| 2026-04-14 15:29 | 50.04390 | 8.56031 | 353 ft | 7 kts | 174° |
| 2026-04-14 15:30 | 50.04388 | 8.56031 | 353 ft | 0 kts | 174° |
| 2026-04-14 15:31 | 50.04347 | 8.56051 | 352 ft | 10 kts | 162° |
| 2026-04-14 15:32 | 50.04279 | 8.56061 | 349 ft | 9 kts | 196° |
| 2026-04-14 15:32 | 50.04251 | 8.55982 | 359 ft | 11 kts | 251° |
| 2026-04-14 15:32 | 50.04197 | 8.55913 | 357 ft | 11 kts | 179° |
| 2026-04-14 15:32 | 50.04126 | 8.55948 | 355 ft | 10 kts | 160° |
| 2026-04-14 15:33 | 50.04063 | 8.55953 | 353 ft | 8 kts | 204° |
| 2026-04-14 15:33 | 50.04042 | 8.55910 | 352 ft | 4 kts | 241° |
| 2026-04-14 15:33 | 50.04022 | 8.55834 | 361 ft | 8 kts | 248° |
| 2026-04-14 15:33 | 50.04002 | 8.55745 | 359 ft | 14 kts | 252° |
| 2026-04-14 15:34 | 50.03970 | 8.55597 | 359 ft | 14 kts | 251° |
| 2026-04-14 15:34 | 50.03939 | 8.55484 | 361 ft | 9 kts | 247° |
| 2026-04-14 15:34 | 50.03916 | 8.55390 | 362 ft | 13 kts | 251° |
| 2026-04-14 15:34 | 50.03878 | 8.55223 | 362 ft | 18 kts | 249° |
| 2026-04-14 15:35 | 50.03834 | 8.55043 | 363 ft | 19 kts | 250° |
| 2026-04-14 15:35 | 50.03785 | 8.54845 | 362 ft | 19 kts | 248° |
| 2026-04-14 15:35 | 50.03741 | 8.54665 | 366 ft | 17 kts | 249° |
| 2026-04-14 15:35 | 50.03702 | 8.54493 | 370 ft | 15 kts | 251° |
| 2026-04-14 15:36 | 50.03665 | 8.54349 | 371 ft | 14 kts | 240° |
| 2026-04-14 15:36 | 50.03593 | 8.54321 | 372 ft | 9 kts | 165° |
| 2026-04-14 15:36 | 50.03576 | 8.54329 | 372 ft | 0 kts | 161° |
| 2026-04-14 15:36 | 50.03555 | 8.54340 | 372 ft | 9 kts | 161° |
| 2026-04-14 15:37 | 50.03496 | 8.54388 | 370 ft | 10 kts | 126° |
| 2026-04-14 15:37 | 50.03504 | 8.54482 | 370 ft | 9 kts | 68° |
| 2026-04-14 15:37 | 50.03571 | 8.54754 | 368 ft | 65 kts | 69° |
| 2026-04-14 15:37 | 50.03831 | 8.55837 | 362 ft | 145 kts | 69° |
| 2026-04-14 15:38 | 50.04254 | 8.57588 | 559 ft | 190 kts | 69° |
| 2026-04-14 15:38 | 50.04744 | 8.59649 | 1233 ft | 215 kts | 70° |
| 2026-04-14 15:38 | 50.05249 | 8.61910 | 2205 ft | 225 kts | 71° |
| 2026-04-14 15:38 | 50.05766 | 8.64252 | 3272 ft | 236 kts | 71° |
| 2026-04-14 15:39 | 50.06320 | 8.66758 | 3784 ft | 243 kts | 71° |
| 2026-04-14 15:39 | 50.06862 | 8.69202 | 3960 ft | 237 kts | 71° |
| 2026-04-14 15:39 | 50.07161 | 8.71706 | 4014 ft | 240 kts | 92° |
| 2026-04-14 15:39 | 50.06906 | 8.74427 | 4019 ft | 263 kts | 100° |
| 2026-04-14 15:40 | 50.06580 | 8.77266 | 4149 ft | 270 kts | 100° |
| 2026-04-14 15:40 | 50.06248 | 8.80142 | 5077 ft | 271 kts | 100° |
| 2026-04-14 15:40 | 50.05916 | 8.83007 | 5973 ft | 274 kts | 100° |
| 2026-04-14 15:40 | 50.05778 | 8.85978 | 6829 ft | 278 kts | 88° |
| 2026-04-14 15:41 | 50.05836 | 8.88993 | 7679 ft | 281 kts | 88° |
| 2026-04-14 15:41 | 50.05892 | 8.92051 | 8515 ft | 284 kts | 88° |
| 2026-04-14 15:41 | 50.05945 | 8.95146 | 9330 ft | 288 kts | 88° |
| 2026-04-14 15:41 | 50.05998 | 8.98287 | 10128 ft | 292 kts | 88° |
| 2026-04-14 15:42 | 50.06051 | 9.01536 | 10508 ft | 313 kts | 88° |
| 2026-04-14 15:42 | 50.06106 | 9.05051 | 10729 ft | 337 kts | 88° |
| 2026-04-14 15:42 | 50.06166 | 9.08811 | 11004 ft | 356 kts | 88° |
| 2026-04-14 15:42 | 50.06227 | 9.12700 | 11596 ft | 364 kts | 89° |
| 2026-04-14 15:43 | 50.06284 | 9.16656 | 12299 ft | 368 kts | 89° |
| 2026-04-14 15:43 | 50.06341 | 9.20664 | 12823 ft | 371 kts | 89° |
| 2026-04-14 15:43 | 50.06433 | 9.24680 | 12978 ft | 372 kts | 84° |
| 2026-04-14 15:43 | 50.06906 | 9.28620 | 13013 ft | 371 kts | 73° |
| 2026-04-14 15:44 | 50.07847 | 9.32359 | 13016 ft | 372 kts | 63° |
| 2026-04-14 15:44 | 50.09080 | 9.35895 | 13012 ft | 372 kts | 61° |
| 2026-04-14 15:44 | 50.10316 | 9.39428 | 13017 ft | 372 kts | 61° |
| 2026-04-14 15:44 | 50.11551 | 9.42983 | 13021 ft | 372 kts | 62° |
| 2026-04-14 15:45 | 50.12775 | 9.46537 | 13011 ft | 372 kts | 62° |
| 2026-04-14 15:45 | 50.13991 | 9.50086 | 13016 ft | 372 kts | 62° |
| 2026-04-14 15:45 | 50.15211 | 9.53648 | 13023 ft | 372 kts | 62° |
| 2026-04-14 15:45 | 50.16420 | 9.57192 | 13070 ft | 369 kts | 63° |
| 2026-04-14 15:46 | 50.17656 | 9.60741 | 13027 ft | 372 kts | 61° |
| 2026-04-14 15:46 | 50.18848 | 9.64317 | 13012 ft | 371 kts | 66° |
| 2026-04-14 15:46 | 50.19653 | 9.68083 | 13021 ft | 371 kts | 77° |
| 2026-04-14 15:46 | 50.20000 | 9.72114 | 13019 ft | 371 kts | 88° |
| 2026-04-14 15:47 | 50.20002 | 9.76098 | 13012 ft | 371 kts | 90° |
| 2026-04-14 15:47 | 50.19992 | 9.80135 | 13010 ft | 371 kts | 90° |
| 2026-04-14 15:47 | 50.19988 | 9.84161 | 13017 ft | 372 kts | 90° |
| 2026-04-14 15:47 | 50.19986 | 9.88186 | 13015 ft | 372 kts | 90° |
| 2026-04-14 15:48 | 50.19984 | 9.92246 | 13013 ft | 371 kts | 90° |
| 2026-04-14 15:48 | 50.19861 | 9.96256 | 13277 ft | 375 kts | 98° |
| 2026-04-14 15:48 | 50.19253 | 10.00220 | 14004 ft | 377 kts | 109° |
| 2026-04-14 15:48 | 50.18154 | 10.03965 | 14655 ft | 380 kts | 121° |
| 2026-04-14 15:49 | 50.16610 | 10.07332 | 14952 ft | 380 kts | 130° |